sensor_id;sensor_type;location;lat;lon;timestamp;P1;durP1;ratioP1;P2;durP2;ratioP2
11121;SDS011;5615;49.304;10.576;2024-03-06T00:02:19;16.03;;;13.63;;
11121;SDS011;5615;49.304;10.576;2024-03-06T00:04:45;16.40;;;14.10;;
11121;SDS011;5615;49.304;10.576;2024-03-06T00:07:12;18.17;;;14.60;;
11121;SDS011;5615;49.304;10.576;2024-03-06T00:09:39;18.23;;;14.30;;
11121;SDS011;5615;49.304;10.576;2024-03-06T00:12:07;15.67;;;13.10;;
11121;SDS011;5615;49.304;10.576;2024-03-06T00:14:33;16.57;;;13.17;;
11121;SDS011;5615;49.304;10.576;2024-03-06T00:17:01;16.60;;;12.50;;
11121;SDS011;5615;49.304;10.576;2024-03-06T00:19:29;16.10;;;12.73;;
11121;SDS011;5615;49.304;10.576;2024-03-06T00:21:56;15.03;;;12.50;;
11121;SDS011;5615;49.304;10.576;2024-03-06T00:24:23;15.93;;;12.47;;
11121;SDS011;5615;49.304;10.576;2024-03-06T00:26:51;18.17;;;12.87;;
11121;SDS011;5615;49.304;10.576;2024-03-06T00:29:19;14.73;;;12.83;;
11121;SDS011;5615;49.304;10.576;2024-03-06T00:31:46;15.87;;;13.07;;
11121;SDS011;5615;49.304;10.576;2024-03-06T00:34:13;16.33;;;13.23;;
11121;SDS011;5615;49.304;10.576;2024-03-06T00:36:40;14.30;;;12.30;;
11121;SDS011;5615;49.304;10.576;2024-03-06T00:39:07;14.57;;;12.50;;
11121;SDS011;5615;49.304;10.576;2024-03-06T00:41:33;14.10;;;12.40;;
11121;SDS011;5615;49.304;10.576;2024-03-06T00:44:00;14.37;;;11.70;;
11121;SDS011;5615;49.304;10.576;2024-03-06T00:46:28;16.67;;;12.27;;
11121;SDS011;5615;49.304;10.576;2024-03-06T00:48:55;13.97;;;12.40;;
11121;SDS011;5615;49.304;10.576;2024-03-06T00:51:22;13.87;;;12.20;;
11121;SDS011;5615;49.304;10.576;2024-03-06T00:53:48;17.80;;;13.17;;
11121;SDS011;5615;49.304;10.576;2024-03-06T00:56:15;16.97;;;13.23;;
11121;SDS011;5615;49.304;10.576;2024-03-06T00:58:42;14.57;;;12.37;;
11121;SDS011;5615;49.304;10.576;2024-03-06T01:01:08;16.60;;;13.13;;
11121;SDS011;5615;49.304;10.576;2024-03-06T01:03:38;15.07;;;12.97;;
11121;SDS011;5615;49.304;10.576;2024-03-06T01:06:04;16.80;;;13.83;;
11121;SDS011;5615;49.304;10.576;2024-03-06T01:08:31;16.17;;;13.23;;
11121;SDS011;5615;49.304;10.576;2024-03-06T01:10:58;18.43;;;13.87;;
11121;SDS011;5615;49.304;10.576;2024-03-06T01:13:24;17.30;;;14.10;;
11121;SDS011;5615;49.304;10.576;2024-03-06T01:15:51;16.17;;;13.33;;
11121;SDS011;5615;49.304;10.576;2024-03-06T01:18:18;16.93;;;14.17;;
11121;SDS011;5615;49.304;10.576;2024-03-06T01:20:46;14.80;;;12.80;;
11121;SDS011;5615;49.304;10.576;2024-03-06T01:23:13;16.97;;;12.33;;
11121;SDS011;5615;49.304;10.576;2024-03-06T01:25:40;16.57;;;12.77;;
11121;SDS011;5615;49.304;10.576;2024-03-06T01:28:06;16.43;;;13.80;;
11121;SDS011;5615;49.304;10.576;2024-03-06T01:30:33;21.23;;;15.23;;
11121;SDS011;5615;49.304;10.576;2024-03-06T01:33:00;26.20;;;15.63;;
11121;SDS011;5615;49.304;10.576;2024-03-06T01:35:26;19.50;;;15.10;;
11121;SDS011;5615;49.304;10.576;2024-03-06T01:37:54;18.07;;;14.47;;
11121;SDS011;5615;49.304;10.576;2024-03-06T01:40:21;19.43;;;14.40;;
11121;SDS011;5615;49.304;10.576;2024-03-06T01:42:48;19.10;;;14.77;;
11121;SDS011;5615;49.304;10.576;2024-03-06T01:45:14;17.20;;;14.53;;
11121;SDS011;5615;49.304;10.576;2024-03-06T01:47:41;18.80;;;15.23;;
11121;SDS011;5615;49.304;10.576;2024-03-06T01:50:08;17.67;;;14.47;;
11121;SDS011;5615;49.304;10.576;2024-03-06T01:52:36;17.90;;;14.63;;
11121;SDS011;5615;49.304;10.576;2024-03-06T01:55:06;24.23;;;16.43;;
11121;SDS011;5615;49.304;10.576;2024-03-06T01:57:33;18.60;;;14.80;;
11121;SDS011;5615;49.304;10.576;2024-03-06T02:00:00;20.83;;;16.00;;
11121;SDS011;5615;49.304;10.576;2024-03-06T02:02:29;22.60;;;16.83;;
11121;SDS011;5615;49.304;10.576;2024-03-06T02:04:56;20.30;;;16.10;;
11121;SDS011;5615;49.304;10.576;2024-03-06T02:07:25;19.87;;;15.43;;
11121;SDS011;5615;49.304;10.576;2024-03-06T02:09:52;19.10;;;15.47;;
11121;SDS011;5615;49.304;10.576;2024-03-06T02:12:20;20.67;;;16.10;;
11121;SDS011;5615;49.304;10.576;2024-03-06T02:14:46;19.50;;;15.03;;
11121;SDS011;5615;49.304;10.576;2024-03-06T02:17:13;19.17;;;15.70;;
11121;SDS011;5615;49.304;10.576;2024-03-06T02:19:40;22.33;;;16.03;;
11121;SDS011;5615;49.304;10.576;2024-03-06T02:22:10;21.77;;;15.67;;
11121;SDS011;5615;49.304;10.576;2024-03-06T02:24:37;19.83;;;15.90;;
11121;SDS011;5615;49.304;10.576;2024-03-06T02:27:04;21.63;;;16.30;;
11121;SDS011;5615;49.304;10.576;2024-03-06T02:29:31;19.63;;;15.63;;
11121;SDS011;5615;49.304;10.576;2024-03-06T02:31:58;23.27;;;17.97;;
11121;SDS011;5615;49.304;10.576;2024-03-06T02:34:27;23.47;;;17.37;;
11121;SDS011;5615;49.304;10.576;2024-03-06T02:36:54;23.07;;;17.60;;
11121;SDS011;5615;49.304;10.576;2024-03-06T02:39:22;22.73;;;17.67;;
11121;SDS011;5615;49.304;10.576;2024-03-06T02:41:49;21.30;;;17.53;;
11121;SDS011;5615;49.304;10.576;2024-03-06T02:44:16;23.53;;;17.43;;
11121;SDS011;5615;49.304;10.576;2024-03-06T02:46:46;23.00;;;17.80;;
11121;SDS011;5615;49.304;10.576;2024-03-06T02:49:14;23.73;;;18.87;;
11121;SDS011;5615;49.304;10.576;2024-03-06T02:51:41;26.23;;;19.07;;
11121;SDS011;5615;49.304;10.576;2024-03-06T02:54:08;24.77;;;19.07;;
11121;SDS011;5615;49.304;10.576;2024-03-06T02:56:35;27.70;;;20.43;;
11121;SDS011;5615;49.304;10.576;2024-03-06T02:59:02;27.53;;;19.63;;
11121;SDS011;5615;49.304;10.576;2024-03-06T03:01:29;28.90;;;20.30;;
11121;SDS011;5615;49.304;10.576;2024-03-06T03:03:56;27.23;;;20.47;;
11121;SDS011;5615;49.304;10.576;2024-03-06T03:06:23;25.13;;;19.47;;
11121;SDS011;5615;49.304;10.576;2024-03-06T03:08:50;27.10;;;19.90;;
11121;SDS011;5615;49.304;10.576;2024-03-06T03:11:17;26.73;;;20.10;;
11121;SDS011;5615;49.304;10.576;2024-03-06T03:13:45;25.83;;;19.67;;
11121;SDS011;5615;49.304;10.576;2024-03-06T03:16:15;27.33;;;20.27;;
11121;SDS011;5615;49.304;10.576;2024-03-06T03:18:43;24.83;;;19.40;;
11121;SDS011;5615;49.304;10.576;2024-03-06T03:21:10;26.03;;;19.37;;
11121;SDS011;5615;49.304;10.576;2024-03-06T03:23:37;30.10;;;21.17;;
11121;SDS011;5615;49.304;10.576;2024-03-06T03:26:04;27.87;;;20.07;;
11121;SDS011;5615;49.304;10.576;2024-03-06T03:28:31;26.20;;;19.50;;
11121;SDS011;5615;49.304;10.576;2024-03-06T03:30:59;28.17;;;20.10;;
11121;SDS011;5615;49.304;10.576;2024-03-06T03:33:25;29.60;;;21.17;;
11121;SDS011;5615;49.304;10.576;2024-03-06T03:35:52;29.43;;;20.13;;
11121;SDS011;5615;49.304;10.576;2024-03-06T03:38:19;26.83;;;20.40;;
11121;SDS011;5615;49.304;10.576;2024-03-06T03:40:45;28.77;;;20.47;;
11121;SDS011;5615;49.304;10.576;2024-03-06T03:43:12;28.03;;;21.23;;
11121;SDS011;5615;49.304;10.576;2024-03-06T03:45:39;28.80;;;21.77;;
11121;SDS011;5615;49.304;10.576;2024-03-06T03:48:07;32.57;;;22.47;;
11121;SDS011;5615;49.304;10.576;2024-03-06T03:50:33;31.10;;;22.53;;
11121;SDS011;5615;49.304;10.576;2024-03-06T03:53:00;30.43;;;21.47;;
11121;SDS011;5615;49.304;10.576;2024-03-06T03:55:27;32.67;;;23.50;;
11121;SDS011;5615;49.304;10.576;2024-03-06T03:57:53;32.13;;;22.97;;
11121;SDS011;5615;49.304;10.576;2024-03-06T04:00:20;30.90;;;22.80;;
11121;SDS011;5615;49.304;10.576;2024-03-06T04:02:47;30.17;;;21.67;;
11121;SDS011;5615;49.304;10.576;2024-03-06T04:05:15;32.63;;;23.20;;
11121;SDS011;5615;49.304;10.576;2024-03-06T04:07:42;29.33;;;21.40;;
11121;SDS011;5615;49.304;10.576;2024-03-06T04:10:09;34.90;;;23.17;;
11121;SDS011;5615;49.304;10.576;2024-03-06T04:12:36;33.80;;;24.30;;
11121;SDS011;5615;49.304;10.576;2024-03-06T04:15:04;32.03;;;22.77;;
11121;SDS011;5615;49.304;10.576;2024-03-06T04:17:33;36.20;;;24.00;;
11121;SDS011;5615;49.304;10.576;2024-03-06T04:20:00;35.27;;;23.20;;
11121;SDS011;5615;49.304;10.576;2024-03-06T04:22:29;34.30;;;23.60;;
11121;SDS011;5615;49.304;10.576;2024-03-06T04:24:55;37.30;;;23.93;;
11121;SDS011;5615;49.304;10.576;2024-03-06T04:27:23;34.73;;;23.53;;
11121;SDS011;5615;49.304;10.576;2024-03-06T04:29:50;31.63;;;22.43;;
11121;SDS011;5615;49.304;10.576;2024-03-06T04:32:17;33.83;;;24.00;;
11121;SDS011;5615;49.304;10.576;2024-03-06T04:34:44;31.47;;;22.20;;
11121;SDS011;5615;49.304;10.576;2024-03-06T04:37:11;33.20;;;22.53;;
11121;SDS011;5615;49.304;10.576;2024-03-06T04:39:39;33.83;;;23.17;;
11121;SDS011;5615;49.304;10.576;2024-03-06T04:42:06;33.20;;;23.87;;
11121;SDS011;5615;49.304;10.576;2024-03-06T04:44:33;31.37;;;22.43;;
11121;SDS011;5615;49.304;10.576;2024-03-06T04:46:59;32.60;;;23.70;;
11121;SDS011;5615;49.304;10.576;2024-03-06T04:49:26;32.57;;;22.60;;
11121;SDS011;5615;49.304;10.576;2024-03-06T04:51:53;36.23;;;23.57;;
11121;SDS011;5615;49.304;10.576;2024-03-06T04:54:19;34.17;;;23.50;;
11121;SDS011;5615;49.304;10.576;2024-03-06T04:56:47;32.70;;;23.17;;
11121;SDS011;5615;49.304;10.576;2024-03-06T04:59:14;34.03;;;22.50;;
11121;SDS011;5615;49.304;10.576;2024-03-06T05:01:41;31.50;;;21.90;;
11121;SDS011;5615;49.304;10.576;2024-03-06T05:04:08;32.73;;;22.93;;
11121;SDS011;5615;49.304;10.576;2024-03-06T05:06:37;34.97;;;22.60;;
11121;SDS011;5615;49.304;10.576;2024-03-06T05:09:04;33.67;;;22.77;;
11121;SDS011;5615;49.304;10.576;2024-03-06T05:11:30;31.50;;;22.30;;
11121;SDS011;5615;49.304;10.576;2024-03-06T05:13:59;33.63;;;23.40;;
11121;SDS011;5615;49.304;10.576;2024-03-06T05:16:26;35.93;;;24.13;;
11121;SDS011;5615;49.304;10.576;2024-03-06T05:18:53;34.67;;;22.93;;
11121;SDS011;5615;49.304;10.576;2024-03-06T05:21:19;31.37;;;21.50;;
11121;SDS011;5615;49.304;10.576;2024-03-06T05:23:47;30.27;;;21.33;;
11121;SDS011;5615;49.304;10.576;2024-03-06T05:26:14;33.67;;;22.90;;
11121;SDS011;5615;49.304;10.576;2024-03-06T05:28:40;35.17;;;22.97;;
11121;SDS011;5615;49.304;10.576;2024-03-06T05:31:15;37.53;;;23.60;;
11121;SDS011;5615;49.304;10.576;2024-03-06T05:33:43;32.80;;;21.60;;
11121;SDS011;5615;49.304;10.576;2024-03-06T05:36:10;34.67;;;22.07;;
11121;SDS011;5615;49.304;10.576;2024-03-06T05:38:38;34.23;;;22.47;;
11121;SDS011;5615;49.304;10.576;2024-03-06T05:41:04;33.93;;;22.03;;
11121;SDS011;5615;49.304;10.576;2024-03-06T05:43:31;33.93;;;23.17;;
11121;SDS011;5615;49.304;10.576;2024-03-06T05:45:57;38.13;;;23.40;;
11121;SDS011;5615;49.304;10.576;2024-03-06T05:48:26;38.47;;;23.63;;
11121;SDS011;5615;49.304;10.576;2024-03-06T05:50:53;35.13;;;22.30;;
11121;SDS011;5615;49.304;10.576;2024-03-06T05:53:20;37.20;;;23.20;;
11121;SDS011;5615;49.304;10.576;2024-03-06T05:55:47;36.97;;;23.90;;
11121;SDS011;5615;49.304;10.576;2024-03-06T05:58:13;40.20;;;22.57;;
11121;SDS011;5615;49.304;10.576;2024-03-06T06:00:41;37.23;;;23.80;;
11121;SDS011;5615;49.304;10.576;2024-03-06T06:03:08;38.93;;;24.03;;
11121;SDS011;5615;49.304;10.576;2024-03-06T06:05:37;34.90;;;22.63;;
11121;SDS011;5615;49.304;10.576;2024-03-06T06:08:05;35.13;;;24.10;;
11121;SDS011;5615;49.304;10.576;2024-03-06T06:10:31;37.13;;;23.77;;
11121;SDS011;5615;49.304;10.576;2024-03-06T06:12:58;42.73;;;25.17;;
11121;SDS011;5615;49.304;10.576;2024-03-06T06:15:25;40.33;;;24.27;;
11121;SDS011;5615;49.304;10.576;2024-03-06T06:17:51;40.03;;;24.17;;
11121;SDS011;5615;49.304;10.576;2024-03-06T06:20:18;43.13;;;25.27;;
11121;SDS011;5615;49.304;10.576;2024-03-06T06:22:46;42.87;;;25.10;;
11121;SDS011;5615;49.304;10.576;2024-03-06T06:25:13;39.37;;;24.33;;
11121;SDS011;5615;49.304;10.576;2024-03-06T06:27:41;38.50;;;24.43;;
11121;SDS011;5615;49.304;10.576;2024-03-06T06:30:08;40.77;;;24.37;;
11121;SDS011;5615;49.304;10.576;2024-03-06T06:32:36;41.73;;;25.33;;
11121;SDS011;5615;49.304;10.576;2024-03-06T06:35:03;46.60;;;25.00;;
11121;SDS011;5615;49.304;10.576;2024-03-06T06:37:30;42.47;;;24.50;;
11121;SDS011;5615;49.304;10.576;2024-03-06T06:39:58;50.93;;;27.67;;
11121;SDS011;5615;49.304;10.576;2024-03-06T06:42:27;46.30;;;25.73;;
11121;SDS011;5615;49.304;10.576;2024-03-06T06:44:54;44.27;;;26.77;;
11121;SDS011;5615;49.304;10.576;2024-03-06T06:47:21;47.40;;;26.30;;
11121;SDS011;5615;49.304;10.576;2024-03-06T06:49:47;50.20;;;27.17;;
11121;SDS011;5615;49.304;10.576;2024-03-06T06:52:14;46.57;;;27.10;;
11121;SDS011;5615;49.304;10.576;2024-03-06T06:54:41;47.03;;;27.33;;
11121;SDS011;5615;49.304;10.576;2024-03-06T06:57:09;48.40;;;28.17;;
11121;SDS011;5615;49.304;10.576;2024-03-06T06:59:35;51.40;;;28.20;;
11121;SDS011;5615;49.304;10.576;2024-03-06T07:02:02;48.27;;;27.87;;
11121;SDS011;5615;49.304;10.576;2024-03-06T07:04:29;48.13;;;28.83;;
11121;SDS011;5615;49.304;10.576;2024-03-06T07:06:56;53.83;;;31.67;;
11121;SDS011;5615;49.304;10.576;2024-03-06T07:09:22;48.57;;;27.93;;
11121;SDS011;5615;49.304;10.576;2024-03-06T07:11:50;53.77;;;30.87;;
11121;SDS011;5615;49.304;10.576;2024-03-06T07:14:18;48.00;;;27.90;;
11121;SDS011;5615;49.304;10.576;2024-03-06T07:16:44;48.93;;;27.73;;
11121;SDS011;5615;49.304;10.576;2024-03-06T07:19:12;52.83;;;30.37;;
11121;SDS011;5615;49.304;10.576;2024-03-06T07:21:38;45.00;;;27.07;;
11121;SDS011;5615;49.304;10.576;2024-03-06T07:24:05;50.63;;;27.87;;
11121;SDS011;5615;49.304;10.576;2024-03-06T07:26:32;49.07;;;27.40;;
11121;SDS011;5615;49.304;10.576;2024-03-06T07:28:59;49.67;;;29.53;;
11121;SDS011;5615;49.304;10.576;2024-03-06T07:31:28;45.67;;;28.13;;
11121;SDS011;5615;49.304;10.576;2024-03-06T07:33:54;49.70;;;28.47;;
11121;SDS011;5615;49.304;10.576;2024-03-06T07:36:21;53.17;;;29.63;;
11121;SDS011;5615;49.304;10.576;2024-03-06T07:38:48;50.37;;;28.97;;
11121;SDS011;5615;49.304;10.576;2024-03-06T07:41:14;46.07;;;28.27;;
11121;SDS011;5615;49.304;10.576;2024-03-06T07:43:41;49.23;;;28.00;;
11121;SDS011;5615;49.304;10.576;2024-03-06T07:46:08;46.53;;;28.80;;
11121;SDS011;5615;49.304;10.576;2024-03-06T07:48:41;51.00;;;27.27;;
11121;SDS011;5615;49.304;10.576;2024-03-06T07:51:08;44.23;;;26.50;;
11121;SDS011;5615;49.304;10.576;2024-03-06T07:53:35;46.47;;;27.43;;
11121;SDS011;5615;49.304;10.576;2024-03-06T07:56:02;46.60;;;25.87;;
11121;SDS011;5615;49.304;10.576;2024-03-06T07:58:29;44.30;;;26.30;;
11121;SDS011;5615;49.304;10.576;2024-03-06T08:00:56;49.17;;;27.87;;
11121;SDS011;5615;49.304;10.576;2024-03-06T08:03:24;51.00;;;27.27;;
11121;SDS011;5615;49.304;10.576;2024-03-06T08:05:52;47.93;;;28.70;;
11121;SDS011;5615;49.304;10.576;2024-03-06T08:08:19;48.00;;;27.60;;
11121;SDS011;5615;49.304;10.576;2024-03-06T08:10:46;45.40;;;27.40;;
11121;SDS011;5615;49.304;10.576;2024-03-06T08:13:12;45.07;;;27.23;;
11121;SDS011;5615;49.304;10.576;2024-03-06T08:15:39;46.53;;;26.67;;
11121;SDS011;5615;49.304;10.576;2024-03-06T08:18:09;44.13;;;27.17;;
11121;SDS011;5615;49.304;10.576;2024-03-06T08:20:36;44.80;;;27.00;;
11121;SDS011;5615;49.304;10.576;2024-03-06T08:23:06;44.10;;;26.50;;
11121;SDS011;5615;49.304;10.576;2024-03-06T08:25:34;47.67;;;27.70;;
11121;SDS011;5615;49.304;10.576;2024-03-06T08:28:01;47.03;;;27.40;;
11121;SDS011;5615;49.304;10.576;2024-03-06T08:30:28;49.93;;;28.57;;
11121;SDS011;5615;49.304;10.576;2024-03-06T08:32:55;42.77;;;25.57;;
11121;SDS011;5615;49.304;10.576;2024-03-06T08:35:22;48.97;;;27.50;;
11121;SDS011;5615;49.304;10.576;2024-03-06T08:37:49;43.33;;;26.30;;
11121;SDS011;5615;49.304;10.576;2024-03-06T08:40:17;43.87;;;26.83;;
11121;SDS011;5615;49.304;10.576;2024-03-06T08:42:45;44.30;;;26.73;;
11121;SDS011;5615;49.304;10.576;2024-03-06T08:45:12;42.60;;;25.47;;
11121;SDS011;5615;49.304;10.576;2024-03-06T08:47:39;43.93;;;26.60;;
11121;SDS011;5615;49.304;10.576;2024-03-06T08:50:06;43.67;;;24.90;;
11121;SDS011;5615;49.304;10.576;2024-03-06T08:52:34;40.30;;;25.53;;
11121;SDS011;5615;49.304;10.576;2024-03-06T08:55:01;42.37;;;26.30;;
11121;SDS011;5615;49.304;10.576;2024-03-06T08:57:32;41.60;;;25.23;;
11121;SDS011;5615;49.304;10.576;2024-03-06T08:59:59;43.23;;;25.80;;
11121;SDS011;5615;49.304;10.576;2024-03-06T09:02:26;44.83;;;25.43;;
11121;SDS011;5615;49.304;10.576;2024-03-06T09:04:52;39.33;;;24.97;;
11121;SDS011;5615;49.304;10.576;2024-03-06T09:07:19;43.20;;;26.07;;
11121;SDS011;5615;49.304;10.576;2024-03-06T09:09:48;41.30;;;25.63;;
11121;SDS011;5615;49.304;10.576;2024-03-06T09:12:15;39.50;;;24.27;;
11121;SDS011;5615;49.304;10.576;2024-03-06T09:14:43;39.30;;;24.90;;
11121;SDS011;5615;49.304;10.576;2024-03-06T09:17:10;44.47;;;25.63;;
11121;SDS011;5615;49.304;10.576;2024-03-06T09:19:38;43.40;;;27.07;;
11121;SDS011;5615;49.304;10.576;2024-03-06T09:22:05;45.00;;;25.83;;
11121;SDS011;5615;49.304;10.576;2024-03-06T09:24:31;38.60;;;24.60;;
11121;SDS011;5615;49.304;10.576;2024-03-06T09:26:58;39.70;;;25.03;;
11121;SDS011;5615;49.304;10.576;2024-03-06T09:29:25;40.30;;;24.13;;
11121;SDS011;5615;49.304;10.576;2024-03-06T09:31:53;39.73;;;24.77;;
11121;SDS011;5615;49.304;10.576;2024-03-06T09:34:20;36.60;;;23.77;;
11121;SDS011;5615;49.304;10.576;2024-03-06T09:36:49;41.03;;;25.10;;
11121;SDS011;5615;49.304;10.576;2024-03-06T09:39:16;35.37;;;23.37;;
11121;SDS011;5615;49.304;10.576;2024-03-06T09:41:45;38.23;;;24.40;;
11121;SDS011;5615;49.304;10.576;2024-03-06T09:44:12;32.60;;;22.00;;
11121;SDS011;5615;49.304;10.576;2024-03-06T09:46:40;31.10;;;21.63;;
11121;SDS011;5615;49.304;10.576;2024-03-06T09:49:11;31.73;;;21.70;;
11121;SDS011;5615;49.304;10.576;2024-03-06T09:51:39;31.57;;;22.20;;
11121;SDS011;5615;49.304;10.576;2024-03-06T09:54:10;33.67;;;22.53;;
11121;SDS011;5615;49.304;10.576;2024-03-06T09:56:40;33.03;;;22.13;;
11121;SDS011;5615;49.304;10.576;2024-03-06T09:59:07;32.10;;;21.77;;
11121;SDS011;5615;49.304;10.576;2024-03-06T10:01:33;32.50;;;21.90;;
11121;SDS011;5615;49.304;10.576;2024-03-06T10:04:18;30.70;;;20.43;;
11121;SDS011;5615;49.304;10.576;2024-03-06T10:06:45;31.70;;;20.60;;
11121;SDS011;5615;49.304;10.576;2024-03-06T10:09:12;32.40;;;21.80;;
11121;SDS011;5615;49.304;10.576;2024-03-06T10:11:43;32.27;;;21.87;;
11121;SDS011;5615;49.304;10.576;2024-03-06T10:14:09;37.63;;;23.03;;
11121;SDS011;5615;49.304;10.576;2024-03-06T10:16:37;34.53;;;22.97;;
11121;SDS011;5615;49.304;10.576;2024-03-06T10:19:17;31.37;;;22.60;;
11121;SDS011;5615;49.304;10.576;2024-03-06T10:21:46;34.70;;;22.77;;
11121;SDS011;5615;49.304;10.576;2024-03-06T10:24:16;35.20;;;21.87;;
11121;SDS011;5615;49.304;10.576;2024-03-06T10:26:45;37.70;;;23.03;;
11121;SDS011;5615;49.304;10.576;2024-03-06T10:29:13;31.40;;;22.57;;
11121;SDS011;5615;49.304;10.576;2024-03-06T10:31:41;34.73;;;21.70;;
11121;SDS011;5615;49.304;10.576;2024-03-06T10:34:13;31.13;;;21.33;;
11121;SDS011;5615;49.304;10.576;2024-03-06T10:36:41;30.43;;;20.53;;
11121;SDS011;5615;49.304;10.576;2024-03-06T10:39:09;32.20;;;21.73;;
11121;SDS011;5615;49.304;10.576;2024-03-06T10:41:38;35.87;;;21.83;;
11121;SDS011;5615;49.304;10.576;2024-03-06T10:44:07;32.03;;;21.77;;
11121;SDS011;5615;49.304;10.576;2024-03-06T10:46:39;30.63;;;20.83;;
11121;SDS011;5615;49.304;10.576;2024-03-06T10:49:09;30.03;;;21.03;;
11121;SDS011;5615;49.304;10.576;2024-03-06T10:51:37;28.60;;;19.90;;
11121;SDS011;5615;49.304;10.576;2024-03-06T10:54:08;26.83;;;19.40;;
11121;SDS011;5615;49.304;10.576;2024-03-06T10:56:35;28.30;;;19.37;;
11121;SDS011;5615;49.304;10.576;2024-03-06T10:59:06;28.87;;;19.53;;
11121;SDS011;5615;49.304;10.576;2024-03-06T11:01:35;26.70;;;19.50;;
11121;SDS011;5615;49.304;10.576;2024-03-06T11:04:03;27.87;;;19.17;;
11121;SDS011;5615;49.304;10.576;2024-03-06T11:06:31;26.07;;;18.40;;
11121;SDS011;5615;49.304;10.576;2024-03-06T11:08:59;26.13;;;18.07;;
11121;SDS011;5615;49.304;10.576;2024-03-06T11:11:27;27.20;;;18.57;;
11121;SDS011;5615;49.304;10.576;2024-03-06T11:13:54;23.43;;;16.87;;
11121;SDS011;5615;49.304;10.576;2024-03-06T11:16:26;24.37;;;17.40;;
11121;SDS011;5615;49.304;10.576;2024-03-06T11:19:04;28.43;;;19.03;;
11121;SDS011;5615;49.304;10.576;2024-03-06T11:21:32;25.97;;;18.80;;
11121;SDS011;5615;49.304;10.576;2024-03-06T11:24:15;25.73;;;18.63;;
11121;SDS011;5615;49.304;10.576;2024-03-06T11:26:48;26.05;;;19.13;;
11121;SDS011;5615;49.304;10.576;2024-03-06T11:29:17;26.43;;;18.87;;
11121;SDS011;5615;49.304;10.576;2024-03-06T11:32:00;25.57;;;19.30;;
11121;SDS011;5615;49.304;10.576;2024-03-06T11:34:35;22.57;;;16.87;;
11121;SDS011;5615;49.304;10.576;2024-03-06T11:37:03;22.50;;;17.50;;
11121;SDS011;5615;49.304;10.576;2024-03-06T11:39:34;25.07;;;17.87;;
11121;SDS011;5615;49.304;10.576;2024-03-06T11:42:03;24.03;;;18.47;;
11121;SDS011;5615;49.304;10.576;2024-03-06T11:44:33;24.17;;;17.57;;
11121;SDS011;5615;49.304;10.576;2024-03-06T11:47:01;24.57;;;17.13;;
11121;SDS011;5615;49.304;10.576;2024-03-06T11:49:29;21.60;;;16.60;;
11121;SDS011;5615;49.304;10.576;2024-03-06T11:52:00;26.37;;;18.07;;
11121;SDS011;5615;49.304;10.576;2024-03-06T11:54:29;23.43;;;18.17;;
11121;SDS011;5615;49.304;10.576;2024-03-06T11:56:56;25.00;;;18.63;;
11121;SDS011;5615;49.304;10.576;2024-03-06T11:59:25;25.03;;;18.97;;
11121;SDS011;5615;49.304;10.576;2024-03-06T12:01:53;26.27;;;19.03;;
11121;SDS011;5615;49.304;10.576;2024-03-06T12:04:22;22.90;;;17.87;;
11121;SDS011;5615;49.304;10.576;2024-03-06T12:06:50;23.53;;;17.33;;
11121;SDS011;5615;49.304;10.576;2024-03-06T12:09:17;22.83;;;16.80;;
11121;SDS011;5615;49.304;10.576;2024-03-06T12:11:44;24.27;;;17.80;;
11121;SDS011;5615;49.304;10.576;2024-03-06T12:14:12;22.90;;;17.47;;
11121;SDS011;5615;49.304;10.576;2024-03-06T12:16:43;23.30;;;17.40;;
11121;SDS011;5615;49.304;10.576;2024-03-06T12:19:10;23.77;;;17.50;;
11121;SDS011;5615;49.304;10.576;2024-03-06T12:21:37;23.87;;;17.73;;
11121;SDS011;5615;49.304;10.576;2024-03-06T12:24:05;23.20;;;16.50;;
11121;SDS011;5615;49.304;10.576;2024-03-06T12:26:33;23.83;;;17.30;;
11121;SDS011;5615;49.304;10.576;2024-03-06T12:29:04;24.77;;;17.20;;
11121;SDS011;5615;49.304;10.576;2024-03-06T12:31:34;24.13;;;17.07;;
11121;SDS011;5615;49.304;10.576;2024-03-06T12:34:03;24.07;;;17.87;;
11121;SDS011;5615;49.304;10.576;2024-03-06T12:36:31;24.50;;;17.57;;
11121;SDS011;5615;49.304;10.576;2024-03-06T12:38:59;27.60;;;17.60;;
11121;SDS011;5615;49.304;10.576;2024-03-06T12:41:27;25.40;;;17.87;;
11121;SDS011;5615;49.304;10.576;2024-03-06T12:43:55;26.77;;;18.10;;
11121;SDS011;5615;49.304;10.576;2024-03-06T12:46:22;25.30;;;18.17;;
11121;SDS011;5615;49.304;10.576;2024-03-06T12:48:49;23.43;;;17.37;;
11121;SDS011;5615;49.304;10.576;2024-03-06T12:51:18;26.50;;;18.30;;
11121;SDS011;5615;49.304;10.576;2024-03-06T12:53:44;25.43;;;18.17;;
11121;SDS011;5615;49.304;10.576;2024-03-06T12:56:11;27.77;;;18.33;;
11121;SDS011;5615;49.304;10.576;2024-03-06T12:58:38;26.63;;;18.07;;
11121;SDS011;5615;49.304;10.576;2024-03-06T13:01:04;24.23;;;17.63;;
11121;SDS011;5615;49.304;10.576;2024-03-06T13:03:31;26.40;;;18.27;;
11121;SDS011;5615;49.304;10.576;2024-03-06T13:05:58;28.50;;;19.20;;
11121;SDS011;5615;49.304;10.576;2024-03-06T13:08:26;24.63;;;18.17;;
11121;SDS011;5615;49.304;10.576;2024-03-06T13:10:53;24.33;;;17.83;;
11121;SDS011;5615;49.304;10.576;2024-03-06T13:13:21;24.80;;;17.80;;
11121;SDS011;5615;49.304;10.576;2024-03-06T13:15:48;26.97;;;18.60;;
11121;SDS011;5615;49.304;10.576;2024-03-06T13:18:15;25.67;;;17.07;;
11121;SDS011;5615;49.304;10.576;2024-03-06T13:20:42;27.40;;;18.33;;
11121;SDS011;5615;49.304;10.576;2024-03-06T13:23:09;27.93;;;17.87;;
11121;SDS011;5615;49.304;10.576;2024-03-06T13:25:37;23.70;;;17.33;;
11121;SDS011;5615;49.304;10.576;2024-03-06T13:28:04;26.57;;;18.37;;
11121;SDS011;5615;49.304;10.576;2024-03-06T13:30:31;23.67;;;17.00;;
11121;SDS011;5615;49.304;10.576;2024-03-06T13:32:58;26.40;;;16.60;;
11121;SDS011;5615;49.304;10.576;2024-03-06T13:35:25;24.20;;;18.07;;
11121;SDS011;5615;49.304;10.576;2024-03-06T13:37:51;24.17;;;17.60;;
11121;SDS011;5615;49.304;10.576;2024-03-06T13:40:18;23.43;;;16.43;;
11121;SDS011;5615;49.304;10.576;2024-03-06T13:42:47;24.50;;;16.67;;
11121;SDS011;5615;49.304;10.576;2024-03-06T13:45:14;23.20;;;16.43;;
11121;SDS011;5615;49.304;10.576;2024-03-06T13:47:41;25.13;;;17.53;;
11121;SDS011;5615;49.304;10.576;2024-03-06T13:50:09;24.20;;;17.40;;
11121;SDS011;5615;49.304;10.576;2024-03-06T13:52:36;23.63;;;16.63;;
11121;SDS011;5615;49.304;10.576;2024-03-06T13:55:04;24.73;;;17.63;;
11121;SDS011;5615;49.304;10.576;2024-03-06T13:57:31;24.57;;;17.33;;
11121;SDS011;5615;49.304;10.576;2024-03-06T14:00:00;27.20;;;18.03;;
11121;SDS011;5615;49.304;10.576;2024-03-06T14:02:28;26.87;;;16.67;;
11121;SDS011;5615;49.304;10.576;2024-03-06T14:04:55;25.90;;;17.13;;
11121;SDS011;5615;49.304;10.576;2024-03-06T14:07:22;22.70;;;16.13;;
11121;SDS011;5615;49.304;10.576;2024-03-06T14:09:49;21.70;;;16.33;;
11121;SDS011;5615;49.304;10.576;2024-03-06T14:12:16;22.10;;;16.17;;
11121;SDS011;5615;49.304;10.576;2024-03-06T14:14:43;22.77;;;16.67;;
11121;SDS011;5615;49.304;10.576;2024-03-06T14:17:12;27.10;;;17.13;;
11121;SDS011;5615;49.304;10.576;2024-03-06T14:19:38;26.57;;;17.60;;
11121;SDS011;5615;49.304;10.576;2024-03-06T14:22:06;24.83;;;17.77;;
11121;SDS011;5615;49.304;10.576;2024-03-06T14:24:33;24.60;;;16.93;;